createdAt,value
2022-11-23T00:02:38.218Z,97580.05
2022-11-23T00:07:39.438Z,97581.69
2022-11-23T00:12:48.990Z,97583.13
2022-11-23T00:17:50.095Z,97576.73
2022-11-23T00:22:51.230Z,97584.16
2022-11-23T00:27:52.346Z,97585.25
2022-11-23T00:32:54.214Z,97578.36
2022-11-23T00:37:55.304Z,97580.05
2022-11-23T00:42:56.644Z,97579.61
2022-11-23T00:48:04.075Z,97578.02
2022-11-23T00:53:05.157Z,97570.89
2022-11-23T00:58:06.577Z,97564.64
2022-11-23T01:03:08.044Z,97564.67
2022-11-23T01:08:09.408Z,97559.59
2022-11-23T01:13:10.482Z,97555.83
2022-11-23T01:18:11.724Z,97563.73
2022-11-23T01:23:12.852Z,97563.66
2022-11-23T01:28:16.078Z,97565.20
2022-11-23T01:33:17.190Z,97562.92
2022-11-23T01:38:18.644Z,97568.56
2022-11-23T01:43:19.906Z,97562.17
2022-11-23T01:48:44.665Z,97561.94
2022-11-23T01:53:48.428Z,97562.53
2022-11-23T01:58:52.819Z,97564.18
2022-11-23T02:03:55.909Z,97567.48
2022-11-23T02:08:57.242Z,97571.06
2022-11-23T02:13:59.703Z,97575.21
2022-11-23T02:19:00.862Z,97579.47
2022-11-23T02:24:17.325Z,97580.19
2022-11-23T02:29:23.283Z,97581.61
2022-11-23T02:34:26.236Z,97575.69
2022-11-23T02:39:33.111Z,97579.50
2022-11-23T02:44:37.412Z,97577.11
2022-11-23T02:49:41.999Z,97578.00
2022-11-23T02:54:43.168Z,97586.73
2022-11-23T02:59:44.243Z,97579.41
2022-11-23T03:04:45.878Z,97577.94
2022-11-23T03:09:46.984Z,97577.63
2022-11-23T03:14:48.234Z,97574.44
2022-11-23T03:19:50.807Z,97572.85
2022-11-23T03:24:52.325Z,97573.15
2022-11-23T03:29:54.022Z,97573.74
2022-11-23T03:34:55.559Z,97577.70
2022-11-23T03:39:57.036Z,97582.86
2022-11-23T03:44:58.198Z,97574.90
2022-11-23T03:49:59.672Z,97570.18
2022-11-23T03:55:00.952Z,97563.60
2022-11-23T04:00:03.216Z,97562.59
2022-11-23T04:05:14.508Z,97559.80
2022-11-23T04:10:38.614Z,97558.54
2022-11-23T04:15:48.015Z,97554.60
2022-11-23T04:20:49.323Z,97559.75
2022-11-23T04:25:50.885Z,97559.48
2022-11-23T04:30:52.669Z,97554.59
2022-11-23T04:35:54.030Z,97565.69
2022-11-23T04:40:55.189Z,97565.45
2022-11-23T04:45:56.456Z,97563.50
2022-11-23T04:51:02.599Z,97561.14
2022-11-23T04:56:08.765Z,97571.04
2022-11-23T05:01:12.460Z,97572.45
2022-11-23T05:06:31.256Z,97568.70
2022-11-23T05:11:33.594Z,97567.69
2022-11-23T05:16:35.573Z,97573.73
2022-11-23T05:21:37.451Z,97574.91
2022-11-23T05:26:39.533Z,97576.02
2022-11-23T05:31:40.901Z,97570.62
2022-11-23T05:36:42.561Z,97568.61
2022-11-23T05:41:44.362Z,97567.95
2022-11-23T05:46:58.098Z,97563.08
2022-11-23T05:52:00.904Z,97564.40
2022-11-23T05:57:02.897Z,97573.20
2022-11-23T06:02:18.275Z,97579.84
2022-11-23T06:07:22.389Z,97585.41
2022-11-23T06:12:35.346Z,97590.51
2022-11-23T06:17:38.139Z,97594.61
2022-11-23T06:22:43.192Z,97593.90
2022-11-23T06:27:56.607Z,97594.90
2022-11-23T06:33:03.941Z,97597.39
2022-11-23T06:38:06.640Z,97608.95
2022-11-23T06:43:08.514Z,97608.11
2022-11-23T06:48:13.984Z,97607.92
2022-11-23T06:53:18.264Z,97602.50
2022-11-23T06:58:26.950Z,97602.91
2022-11-23T07:03:28.464Z,97606.15
2022-11-23T07:08:43.040Z,97603.55
2022-11-23T07:14:04.428Z,97600.39
2022-11-23T07:19:06.000Z,97604.30
2022-11-23T07:24:07.369Z,97611.44
2022-11-23T07:29:09.759Z,97614.85
2022-11-23T07:34:11.294Z,97623.79
2022-11-23T07:39:12.716Z,97630.08
2022-11-23T07:44:14.362Z,97627.54
2022-11-23T07:49:15.418Z,97633.45
2022-11-23T07:54:20.757Z,97633.42
2022-11-23T07:59:24.754Z,97631.36
2022-11-23T08:04:26.578Z,97640.13
2022-11-23T08:09:27.743Z,97648.16
2022-11-23T08:14:28.926Z,97654.85
2022-11-23T08:19:30.076Z,97649.30
2022-11-23T08:24:31.519Z,97633.63
2022-11-23T08:29:33.104Z,97627.66
2022-11-23T08:34:34.489Z,97617.61
2022-11-23T08:39:36.060Z,97625.44
2022-11-23T08:44:37.402Z,97619.67
2022-11-23T08:49:38.665Z,97620.20
2022-11-23T08:54:39.824Z,97625.10
2022-11-23T08:59:40.928Z,97623.16
2022-11-23T09:04:42.760Z,97623.30
2022-11-23T09:09:43.861Z,97618.73
2022-11-23T09:14:45.080Z,97612.91
2022-11-23T09:19:46.243Z,97610.02
2022-11-23T09:24:47.440Z,97609.85
2022-11-23T09:29:49.487Z,97598.61
2022-11-23T09:34:50.607Z,97604.99
2022-11-23T09:39:51.679Z,97602.73
2022-11-23T09:45:13.683Z,97600.00
2022-11-23T09:50:42.384Z,97595.42
2022-11-23T09:55:46.628Z,97597.36
2022-11-23T10:00:53.335Z,97594.51
2022-11-23T10:06:19.259Z,97587.25
2022-11-23T10:11:49.693Z,97580.79
2022-11-23T10:17:21.856Z,97565.80
2022-11-23T10:22:56.908Z,97557.10
2022-11-23T10:28:02.579Z,97548.45
2022-11-23T10:33:26.165Z,97549.41
2022-11-23T10:38:27.835Z,97541.30
2022-11-23T10:43:44.663Z,97536.15
2022-11-23T10:48:46.789Z,97535.30
2022-11-23T10:53:55.327Z,97535.64
2022-11-23T10:58:57.569Z,97538.17
2022-11-23T11:04:05.821Z,97534.16
2022-11-23T11:09:19.740Z,97530.14
2022-11-23T11:14:22.909Z,97525.81
2022-11-23T11:19:35.564Z,97519.02
2022-11-23T11:24:42.856Z,97517.61
2022-11-23T11:29:43.897Z,97519.12
2022-11-23T11:34:51.425Z,97520.57
2022-11-23T11:40:05.308Z,97522.14
2022-11-23T11:45:23.939Z,97520.72
2022-11-23T11:50:33.812Z,97522.10
2022-11-23T11:55:55.305Z,97522.88
2022-11-23T12:01:08.225Z,97522.01
2022-11-23T12:06:28.153Z,97522.61
2022-11-23T12:11:29.471Z,97532.55
2022-11-23T12:16:30.447Z,97537.31
2022-11-23T12:22:20.467Z,97542.40
2022-11-23T12:27:28.380Z,97547.33
2022-11-23T12:33:00.799Z,97551.80
2022-11-23T12:38:29.141Z,97555.17
2022-11-23T12:43:51.934Z,97552.42
2022-11-23T12:49:05.895Z,97559.08
2022-11-23T12:54:20.468Z,97566.91
2022-11-23T12:59:25.012Z,97561.63
2022-11-23T13:04:49.430Z,97564.72
2022-11-23T13:10:25.299Z,97569.90
2022-11-23T13:15:35.579Z,97577.52
2022-11-23T13:20:55.876Z,97583.23
2022-11-23T13:26:21.685Z,97579.59
2022-11-23T13:31:27.002Z,97578.36
2022-11-23T13:37:10.610Z,97573.30
2022-11-23T13:42:00.862Z,97568.98
2022-11-23T13:47:03.736Z,97571.25
2022-11-23T13:52:19.764Z,97580.63
2022-11-23T13:57:21.318Z,97585.56
2022-11-23T14:02:26.541Z,97587.91
2022-11-23T14:07:42.754Z,97590.75
2022-11-23T14:12:49.577Z,97588.02
2022-11-23T14:18:09.570Z,97596.86
2022-11-23T14:23:38.788Z,97597.81
2022-11-23T14:29:05.276Z,97599.77
2022-11-23T14:34:32.273Z,97601.07
2022-11-23T14:39:55.595Z,97599.80
2022-11-23T14:45:04.120Z,97608.02
2022-11-23T14:50:05.897Z,97607.83
2022-11-23T14:55:17.044Z,97609.37
2022-11-23T15:00:30.344Z,97611.73
2022-11-23T15:05:39.229Z,97607.68
2022-11-23T15:10:57.034Z,97621.40
2022-11-23T15:15:58.808Z,97627.89
2022-11-23T15:21:13.841Z,97635.59
2022-11-23T15:26:46.195Z,97635.64
2022-11-23T15:31:55.268Z,97642.78
2022-11-23T15:37:05.094Z,97638.65
2022-11-23T15:42:06.648Z,97628.50
2022-11-23T15:47:15.812Z,97625.38
2022-11-23T15:52:19.120Z,97626.39
2022-11-23T15:57:24.056Z,97634.95
2022-11-23T16:02:28.636Z,97644.66
2022-11-23T16:07:30.244Z,97649.51
2022-11-23T16:12:34.925Z,97644.33
2022-11-23T16:17:36.043Z,97642.89
2022-11-23T16:22:41.160Z,97643.07
2022-11-23T16:27:42.308Z,97643.78
2022-11-23T16:32:43.460Z,97650.14
2022-11-23T16:37:45.339Z,97650.14
2022-11-23T16:42:51.188Z,97652.56
2022-11-23T16:48:01.337Z,97660.64
2022-11-23T16:53:16.144Z,97663.30
2022-11-23T16:58:18.136Z,97666.39
2022-11-23T17:03:20.530Z,97665.96
2022-11-23T17:08:23.889Z,97669.27
2022-11-23T17:13:28.336Z,97675.54
2022-11-23T17:18:29.436Z,97678.35
2022-11-23T17:23:30.747Z,97676.23
2022-11-23T17:28:33.536Z,97672.62
2022-11-23T17:33:34.663Z,97664.10
2022-11-23T17:38:37.984Z,97665.45
2022-11-23T17:43:39.105Z,97665.04
2022-11-23T17:48:40.396Z,97666.98
2022-11-23T17:53:41.563Z,97663.06
2022-11-23T17:58:43.124Z,97662.20
2022-11-23T18:03:45.524Z,97666.30
2022-11-23T18:08:48.106Z,97664.92
2022-11-23T18:13:50.091Z,97662.00
2022-11-23T18:18:58.313Z,97672.15
2022-11-23T18:24:04.356Z,97679.84
2022-11-23T18:29:06.102Z,97683.70
2022-11-23T18:34:07.427Z,97680.05
2022-11-23T18:39:08.542Z,97685.58
2022-11-23T18:44:09.642Z,97688.60
2022-11-23T18:49:11.523Z,97685.45
2022-11-23T18:54:12.651Z,97689.84
2022-11-23T18:59:35.105Z,97694.04
2022-11-23T19:04:35.236Z,97684.52
2022-11-23T19:09:36.954Z,97685.70
2022-11-23T19:14:38.113Z,97684.45
2022-11-23T19:19:39.279Z,97683.00
2022-11-23T19:24:40.548Z,97680.23
2022-11-23T19:29:41.738Z,97683.83
2022-11-23T19:34:42.958Z,97684.45
2022-11-23T19:39:44.122Z,97681.30
2022-11-23T19:44:45.281Z,97681.75
2022-11-23T19:49:46.436Z,97683.83
2022-11-23T19:54:47.599Z,97680.75
2022-11-23T19:59:48.706Z,97683.66
2022-11-23T20:04:51.324Z,97687.49
2022-11-23T20:09:52.925Z,97687.45
2022-11-23T20:14:53.981Z,97696.27
2022-11-23T20:19:55.146Z,97699.46
2022-11-23T20:25:03.576Z,97704.31
2022-11-23T20:30:05.077Z,97702.30
2022-11-23T20:35:06.714Z,97700.67
2022-11-23T20:40:08.496Z,97707.04
2022-11-23T20:45:09.879Z,97705.06
2022-11-23T20:50:11.036Z,97706.50
2022-11-23T20:55:12.279Z,97709.30
2022-11-23T21:00:16.305Z,97714.65
2022-11-23T21:05:18.389Z,97713.41
2022-11-23T21:10:38.082Z,97716.70
2022-11-23T21:15:39.651Z,97723.19
2022-11-23T21:20:42.658Z,97729.16
2022-11-23T21:25:44.169Z,97731.52
2022-11-23T21:30:45.590Z,97739.33
2022-11-23T21:35:46.752Z,97745.83
2022-11-23T21:40:48.768Z,97749.56
2022-11-23T21:46:00.486Z,97754.13
2022-11-23T21:51:04.363Z,97758.61
2022-11-23T21:56:10.979Z,97762.00
2022-11-23T22:01:19.743Z,97761.70
2022-11-23T22:06:21.675Z,97758.20
2022-11-23T22:11:25.983Z,97755.61
2022-11-23T22:16:30.932Z,97758.27
2022-11-23T22:21:35.086Z,97757.21
2022-11-23T22:26:36.139Z,97752.52
2022-11-23T22:31:39.399Z,97759.09
2022-11-23T22:36:41.450Z,97759.55
2022-11-23T22:41:42.596Z,97759.81
2022-11-23T22:46:44.368Z,97758.60
2022-11-23T22:51:45.533Z,97756.11
2022-11-23T22:56:46.722Z,97756.85
2022-11-23T23:01:47.848Z,97758.64
2022-11-23T23:06:50.181Z,97758.21
2022-11-23T23:11:51.214Z,97750.69
2022-11-23T23:16:52.448Z,97752.80
2022-11-23T23:21:53.717Z,97757.30
2022-11-23T23:26:55.187Z,97753.71
2022-11-23T23:31:56.318Z,97757.49
2022-11-23T23:36:57.537Z,97752.33
2022-11-23T23:41:58.674Z,97756.20
2022-11-23T23:46:59.839Z,97762.04
2022-11-23T23:52:01.101Z,97763.45
2022-11-23T23:57:02.250Z,97768.08
